sensor_id;sensor_type;location;lat;lon;timestamp;P1;durP1;ratioP1;P2;durP2;ratioP2
75061;SDS011;63641;46.526;24.612;2023-03-01T00:00:01;18.70;;;14.27;;
75061;SDS011;63641;46.526;24.612;2023-03-01T00:02:29;18.00;;;13.35;;
75061;SDS011;63641;46.526;24.612;2023-03-01T00:04:56;16.55;;;14.00;;
75061;SDS011;63641;46.526;24.612;2023-03-01T00:07:23;17.73;;;12.27;;
75061;SDS011;63641;46.526;24.612;2023-03-01T00:09:50;19.85;;;15.00;;
75061;SDS011;63641;46.526;24.612;2023-03-01T00:12:16;17.67;;;15.38;;
75061;SDS011;63641;46.526;24.612;2023-03-01T00:14:43;17.52;;;14.85;;
75061;SDS011;63641;46.526;24.612;2023-03-01T00:17:10;21.77;;;15.68;;
75061;SDS011;63641;46.526;24.612;2023-03-01T00:19:37;19.25;;;15.68;;
75061;SDS011;63641;46.526;24.612;2023-03-01T00:22:03;22.35;;;15.73;;
75061;SDS011;63641;46.526;24.612;2023-03-01T00:24:30;19.48;;;15.02;;
75061;SDS011;63641;46.526;24.612;2023-03-01T00:26:57;18.42;;;14.18;;
75061;SDS011;63641;46.526;24.612;2023-03-01T00:29:24;16.55;;;13.75;;
75061;SDS011;63641;46.526;24.612;2023-03-01T00:31:51;17.60;;;13.93;;
75061;SDS011;63641;46.526;24.612;2023-03-01T00:34:18;17.33;;;13.27;;
75061;SDS011;63641;46.526;24.612;2023-03-01T00:36:45;16.80;;;13.50;;
75061;SDS011;63641;46.526;24.612;2023-03-01T00:39:12;16.85;;;12.82;;
75061;SDS011;63641;46.526;24.612;2023-03-01T00:41:41;16.77;;;12.93;;
75061;SDS011;63641;46.526;24.612;2023-03-01T00:44:08;18.95;;;13.10;;
75061;SDS011;63641;46.526;24.612;2023-03-01T00:46:35;17.40;;;15.05;;
75061;SDS011;63641;46.526;24.612;2023-03-01T00:49:02;22.35;;;14.93;;
75061;SDS011;63641;46.526;24.612;2023-03-01T00:51:31;18.55;;;14.35;;
75061;SDS011;63641;46.526;24.612;2023-03-01T00:53:58;16.77;;;13.10;;
75061;SDS011;63641;46.526;24.612;2023-03-01T00:56:27;21.20;;;15.57;;
75061;SDS011;63641;46.526;24.612;2023-03-01T00:58:54;17.20;;;13.02;;
75061;SDS011;63641;46.526;24.612;2023-03-01T01:01:22;18.17;;;13.43;;
75061;SDS011;63641;46.526;24.612;2023-03-01T01:03:54;14.95;;;12.32;;
75061;SDS011;63641;46.526;24.612;2023-03-01T01:06:26;18.33;;;14.52;;
75061;SDS011;63641;46.526;24.612;2023-03-01T01:08:57;17.13;;;13.35;;
75061;SDS011;63641;46.526;24.612;2023-03-01T01:11:24;17.63;;;14.60;;
75061;SDS011;63641;46.526;24.612;2023-03-01T01:13:53;15.50;;;13.07;;
75061;SDS011;63641;46.526;24.612;2023-03-01T01:16:21;22.15;;;16.05;;
75061;SDS011;63641;46.526;24.612;2023-03-01T01:18:48;22.33;;;16.35;;
75061;SDS011;63641;46.526;24.612;2023-03-01T01:21:17;22.60;;;15.13;;
75061;SDS011;63641;46.526;24.612;2023-03-01T01:23:45;21.42;;;14.13;;
75061;SDS011;63641;46.526;24.612;2023-03-01T01:26:14;17.25;;;14.32;;
75061;SDS011;63641;46.526;24.612;2023-03-01T01:28:51;17.08;;;13.48;;
75061;SDS011;63641;46.526;24.612;2023-03-01T01:31:22;17.52;;;13.88;;
75061;SDS011;63641;46.526;24.612;2023-03-01T01:33:50;21.25;;;15.38;;
75061;SDS011;63641;46.526;24.612;2023-03-01T01:36:17;18.38;;;13.82;;
75061;SDS011;63641;46.526;24.612;2023-03-01T01:38:44;19.98;;;14.27;;
75061;SDS011;63641;46.526;24.612;2023-03-01T01:41:12;18.60;;;14.65;;
75061;SDS011;63641;46.526;24.612;2023-03-01T01:43:43;17.60;;;14.25;;
75061;SDS011;63641;46.526;24.612;2023-03-01T01:51:39;766.53;;;57.10;;
75061;SDS011;63641;46.526;24.612;2023-03-01T01:54:08;19.55;;;15.07;;
75061;SDS011;63641;46.526;24.612;2023-03-01T01:56:38;19.60;;;13.95;;
75061;SDS011;63641;46.526;24.612;2023-03-01T01:59:09;21.55;;;15.55;;
75061;SDS011;63641;46.526;24.612;2023-03-01T02:01:37;20.48;;;14.90;;
75061;SDS011;63641;46.526;24.612;2023-03-01T02:04:04;20.33;;;15.35;;
75061;SDS011;63641;46.526;24.612;2023-03-01T02:09:32;20.85;;;15.80;;
75061;SDS011;63641;46.526;24.612;2023-03-01T02:12:01;20.08;;;15.10;;
75061;SDS011;63641;46.526;24.612;2023-03-01T02:14:29;23.17;;;16.38;;
75061;SDS011;63641;46.526;24.612;2023-03-01T02:16:55;24.85;;;18.58;;
75061;SDS011;63641;46.526;24.612;2023-03-01T02:22:20;31.55;;;20.35;;
75061;SDS011;63641;46.526;24.612;2023-03-01T02:27:21;28.05;;;20.25;;
75061;SDS011;63641;46.526;24.612;2023-03-01T02:29:52;26.63;;;19.15;;
75061;SDS011;63641;46.526;24.612;2023-03-01T02:32:21;29.50;;;19.85;;
75061;SDS011;63641;46.526;24.612;2023-03-01T02:34:52;24.30;;;19.13;;
75061;SDS011;63641;46.526;24.612;2023-03-01T02:37:20;26.00;;;19.05;;
75061;SDS011;63641;46.526;24.612;2023-03-01T02:39:53;33.83;;;23.35;;
75061;SDS011;63641;46.526;24.612;2023-03-01T02:42:26;30.95;;;22.20;;
75061;SDS011;63641;46.526;24.612;2023-03-01T02:45:00;32.60;;;21.17;;
75061;SDS011;63641;46.526;24.612;2023-03-01T02:47:26;28.35;;;20.52;;
75061;SDS011;63641;46.526;24.612;2023-03-01T02:49:53;29.27;;;21.90;;
75061;SDS011;63641;46.526;24.612;2023-03-01T02:55:11;24.95;;;20.08;;
75061;SDS011;63641;46.526;24.612;2023-03-01T02:57:42;38.60;;;24.88;;
75061;SDS011;63641;46.526;24.612;2023-03-01T03:00:12;35.47;;;25.50;;
75061;SDS011;63641;46.526;24.612;2023-03-01T03:02:52;34.13;;;24.90;;
75061;SDS011;63641;46.526;24.612;2023-03-01T03:05:21;35.67;;;25.02;;
75061;SDS011;63641;46.526;24.612;2023-03-01T03:07:52;38.60;;;25.45;;
75061;SDS011;63641;46.526;24.612;2023-03-01T03:10:21;40.53;;;26.70;;
75061;SDS011;63641;46.526;24.612;2023-03-01T03:12:52;42.60;;;26.35;;
75061;SDS011;63641;46.526;24.612;2023-03-01T03:15:21;34.72;;;25.48;;
75061;SDS011;63641;46.526;24.612;2023-03-01T03:17:49;453.67;;;48.75;;
75061;SDS011;63641;46.526;24.612;2023-03-01T03:20:18;39.90;;;25.23;;
75061;SDS011;63641;46.526;24.612;2023-03-01T03:22:47;199.02;;;32.38;;
75061;SDS011;63641;46.526;24.612;2023-03-01T03:25:18;39.28;;;26.35;;
75061;SDS011;63641;46.526;24.612;2023-03-01T03:27:47;36.67;;;26.23;;
75061;SDS011;63641;46.526;24.612;2023-03-01T03:30:16;39.30;;;25.33;;
75061;SDS011;63641;46.526;24.612;2023-03-01T03:32:45;42.25;;;27.13;;
75061;SDS011;63641;46.526;24.612;2023-03-01T03:35:27;283.98;;;36.65;;
75061;SDS011;63641;46.526;24.612;2023-03-01T03:37:57;38.03;;;24.08;;
75061;SDS011;63641;46.526;24.612;2023-03-01T03:43:06;37.97;;;25.85;;
75061;SDS011;63641;46.526;24.612;2023-03-01T03:45:35;37.00;;;25.52;;
75061;SDS011;63641;46.526;24.612;2023-03-01T03:48:03;41.67;;;25.13;;
75061;SDS011;63641;46.526;24.612;2023-03-01T03:50:31;36.40;;;24.17;;
75061;SDS011;63641;46.526;24.612;2023-03-01T03:53:02;34.58;;;22.08;;
75061;SDS011;63641;46.526;24.612;2023-03-01T03:55:31;38.20;;;23.98;;
75061;SDS011;63641;46.526;24.612;2023-03-01T03:58:00;30.65;;;23.90;;
75061;SDS011;63641;46.526;24.612;2023-03-01T04:00:34;32.20;;;24.52;;
75061;SDS011;63641;46.526;24.612;2023-03-01T04:03:02;35.00;;;24.15;;
75061;SDS011;63641;46.526;24.612;2023-03-01T04:05:29;36.17;;;24.83;;
75061;SDS011;63641;46.526;24.612;2023-03-01T04:07:56;39.45;;;25.02;;
75061;SDS011;63641;46.526;24.612;2023-03-01T04:10:30;31.48;;;22.48;;
75061;SDS011;63641;46.526;24.612;2023-03-01T04:12:59;33.45;;;24.60;;
75061;SDS011;63641;46.526;24.612;2023-03-01T04:15:26;32.30;;;24.10;;
75061;SDS011;63641;46.526;24.612;2023-03-01T04:17:53;32.97;;;23.42;;
75061;SDS011;63641;46.526;24.612;2023-03-01T04:20:25;35.15;;;24.02;;
75061;SDS011;63641;46.526;24.612;2023-03-01T04:22:57;34.42;;;23.52;;
75061;SDS011;63641;46.526;24.612;2023-03-01T04:25:40;33.15;;;23.63;;
75061;SDS011;63641;46.526;24.612;2023-03-01T04:28:08;33.63;;;23.58;;
75061;SDS011;63641;46.526;24.612;2023-03-01T04:30:40;32.75;;;23.67;;
75061;SDS011;63641;46.526;24.612;2023-03-01T04:33:08;29.90;;;22.13;;
75061;SDS011;63641;46.526;24.612;2023-03-01T04:35:36;437.77;;;40.05;;
75061;SDS011;63641;46.526;24.612;2023-03-01T04:38:04;34.05;;;23.98;;
75061;SDS011;63641;46.526;24.612;2023-03-01T04:40:31;33.00;;;22.02;;
75061;SDS011;63641;46.526;24.612;2023-03-01T04:42:58;26.63;;;21.67;;
75061;SDS011;63641;46.526;24.612;2023-03-01T04:45:25;31.38;;;21.92;;
75061;SDS011;63641;46.526;24.612;2023-03-01T04:47:52;33.45;;;23.15;;
75061;SDS011;63641;46.526;24.612;2023-03-01T04:50:19;30.45;;;21.90;;
75061;SDS011;63641;46.526;24.612;2023-03-01T04:52:49;35.05;;;22.38;;
75061;SDS011;63641;46.526;24.612;2023-03-01T04:55:16;32.15;;;23.10;;
75061;SDS011;63641;46.526;24.612;2023-03-01T04:57:43;36.58;;;24.13;;
75061;SDS011;63641;46.526;24.612;2023-03-01T05:00:10;35.33;;;23.40;;
75061;SDS011;63641;46.526;24.612;2023-03-01T05:02:52;31.83;;;22.90;;
75061;SDS011;63641;46.526;24.612;2023-03-01T05:05:21;34.70;;;24.98;;
75061;SDS011;63641;46.526;24.612;2023-03-01T05:07:56;33.63;;;24.25;;
75061;SDS011;63641;46.526;24.612;2023-03-01T05:10:25;37.08;;;24.02;;
75061;SDS011;63641;46.526;24.612;2023-03-01T05:12:53;36.80;;;25.80;;
75061;SDS011;63641;46.526;24.612;2023-03-01T05:15:19;36.83;;;24.88;;
75061;SDS011;63641;46.526;24.612;2023-03-01T05:17:52;45.15;;;25.67;;
75061;SDS011;63641;46.526;24.612;2023-03-01T05:20:21;38.33;;;24.70;;
75061;SDS011;63641;46.526;24.612;2023-03-01T05:22:51;36.65;;;25.05;;
75061;SDS011;63641;46.526;24.612;2023-03-01T05:25:20;40.90;;;26.60;;
75061;SDS011;63641;46.526;24.612;2023-03-01T05:27:47;40.95;;;26.77;;
75061;SDS011;63641;46.526;24.612;2023-03-01T05:30:14;47.40;;;26.73;;
75061;SDS011;63641;46.526;24.612;2023-03-01T05:32:45;58.22;;;25.70;;
75061;SDS011;63641;46.526;24.612;2023-03-01T05:35:15;38.55;;;24.30;;
75061;SDS011;63641;46.526;24.612;2023-03-01T05:37:44;69.10;;;25.52;;
75061;SDS011;63641;46.526;24.612;2023-03-01T05:40:14;64.90;;;25.40;;
75061;SDS011;63641;46.526;24.612;2023-03-01T05:42:47;38.45;;;24.85;;
75061;SDS011;63641;46.526;24.612;2023-03-01T05:45:16;34.25;;;22.75;;
75061;SDS011;63641;46.526;24.612;2023-03-01T05:47:44;32.92;;;23.40;;
75061;SDS011;63641;46.526;24.612;2023-03-01T05:50:15;31.17;;;22.70;;
75061;SDS011;63641;46.526;24.612;2023-03-01T05:52:48;37.92;;;24.13;;
75061;SDS011;63641;46.526;24.612;2023-03-01T05:55:20;33.83;;;23.05;;
75061;SDS011;63641;46.526;24.612;2023-03-01T05:57:48;69.72;;;23.00;;
75061;SDS011;63641;46.526;24.612;2023-03-01T06:00:16;36.42;;;23.20;;
75061;SDS011;63641;46.526;24.612;2023-03-01T06:02:45;32.00;;;22.52;;
75061;SDS011;63641;46.526;24.612;2023-03-01T06:05:12;32.78;;;22.75;;
75061;SDS011;63641;46.526;24.612;2023-03-01T06:07:39;31.80;;;23.65;;
75061;SDS011;63641;46.526;24.612;2023-03-01T06:10:07;46.83;;;24.10;;
75061;SDS011;63641;46.526;24.612;2023-03-01T06:12:35;64.20;;;26.90;;
75061;SDS011;63641;46.526;24.612;2023-03-01T06:15:04;61.38;;;26.50;;
75061;SDS011;63641;46.526;24.612;2023-03-01T06:17:33;42.40;;;26.15;;
75061;SDS011;63641;46.526;24.612;2023-03-01T06:20:11;183.65;;;32.15;;
75061;SDS011;63641;46.526;24.612;2023-03-01T06:22:41;59.42;;;26.35;;
75061;SDS011;63641;46.526;24.612;2023-03-01T06:25:08;73.65;;;27.75;;
75061;SDS011;63641;46.526;24.612;2023-03-01T06:27:36;66.53;;;28.05;;
75061;SDS011;63641;46.526;24.612;2023-03-01T06:30:03;65.35;;;28.48;;
75061;SDS011;63641;46.526;24.612;2023-03-01T06:32:30;82.32;;;28.40;;
75061;SDS011;63641;46.526;24.612;2023-03-01T06:34:58;87.57;;;32.83;;
75061;SDS011;63641;46.526;24.612;2023-03-01T06:37:25;71.28;;;31.80;;
75061;SDS011;63641;46.526;24.612;2023-03-01T06:39:52;90.97;;;35.75;;
75061;SDS011;63641;46.526;24.612;2023-03-01T06:42:19;61.08;;;35.78;;
75061;SDS011;63641;46.526;24.612;2023-03-01T06:44:45;57.85;;;35.75;;
75061;SDS011;63641;46.526;24.612;2023-03-01T06:47:12;52.10;;;34.45;;
75061;SDS011;63641;46.526;24.612;2023-03-01T06:49:39;46.80;;;31.33;;
75061;SDS011;63641;46.526;24.612;2023-03-01T06:52:06;43.80;;;31.17;;
75061;SDS011;63641;46.526;24.612;2023-03-01T06:54:33;38.08;;;25.67;;
75061;SDS011;63641;46.526;24.612;2023-03-01T06:57:00;33.38;;;24.27;;
75061;SDS011;63641;46.526;24.612;2023-03-01T06:59:27;34.38;;;24.25;;
75061;SDS011;63641;46.526;24.612;2023-03-01T07:01:53;28.42;;;22.90;;
75061;SDS011;63641;46.526;24.612;2023-03-01T07:04:20;30.80;;;24.10;;
75061;SDS011;63641;46.526;24.612;2023-03-01T07:06:47;31.38;;;23.58;;
75061;SDS011;63641;46.526;24.612;2023-03-01T07:09:23;34.30;;;23.60;;
75061;SDS011;63641;46.526;24.612;2023-03-01T07:11:51;30.25;;;24.05;;
75061;SDS011;63641;46.526;24.612;2023-03-01T07:14:18;31.13;;;23.88;;
75061;SDS011;63641;46.526;24.612;2023-03-01T07:16:45;27.50;;;21.30;;
75061;SDS011;63641;46.526;24.612;2023-03-01T07:19:12;27.40;;;20.95;;
75061;SDS011;63641;46.526;24.612;2023-03-01T07:21:39;24.40;;;20.02;;
75061;SDS011;63641;46.526;24.612;2023-03-01T07:24:06;24.38;;;19.88;;
75061;SDS011;63641;46.526;24.612;2023-03-01T07:26:33;26.75;;;19.65;;
75061;SDS011;63641;46.526;24.612;2023-03-01T07:29:00;25.92;;;21.42;;
75061;SDS011;63641;46.526;24.612;2023-03-01T07:31:28;24.10;;;19.20;;
75061;SDS011;63641;46.526;24.612;2023-03-01T07:33:55;26.52;;;19.80;;
75061;SDS011;63641;46.526;24.612;2023-03-01T07:36:22;24.27;;;18.48;;
75061;SDS011;63641;46.526;24.612;2023-03-01T07:38:50;25.73;;;19.70;;
75061;SDS011;63641;46.526;24.612;2023-03-01T07:41:17;23.55;;;18.15;;
75061;SDS011;63641;46.526;24.612;2023-03-01T07:43:44;23.92;;;17.75;;
75061;SDS011;63641;46.526;24.612;2023-03-01T07:46:11;23.50;;;18.70;;
75061;SDS011;63641;46.526;24.612;2023-03-01T07:48:37;20.80;;;17.80;;
75061;SDS011;63641;46.526;24.612;2023-03-01T07:51:05;23.30;;;17.92;;
75061;SDS011;63641;46.526;24.612;2023-03-01T07:53:33;20.83;;;16.67;;
75061;SDS011;63641;46.526;24.612;2023-03-01T07:56:04;18.70;;;15.85;;
75061;SDS011;63641;46.526;24.612;2023-03-01T07:58:36;20.58;;;16.48;;
75061;SDS011;63641;46.526;24.612;2023-03-01T08:01:10;22.73;;;16.77;;
75061;SDS011;63641;46.526;24.612;2023-03-01T08:03:39;21.75;;;15.60;;
75061;SDS011;63641;46.526;24.612;2023-03-01T08:06:08;22.70;;;16.95;;
75061;SDS011;63641;46.526;24.612;2023-03-01T08:08:36;19.02;;;15.30;;
75061;SDS011;63641;46.526;24.612;2023-03-01T08:11:03;18.98;;;14.57;;
75061;SDS011;63641;46.526;24.612;2023-03-01T08:13:32;18.30;;;15.20;;
75061;SDS011;63641;46.526;24.612;2023-03-01T08:16:00;17.90;;;14.10;;
75061;SDS011;63641;46.526;24.612;2023-03-01T08:18:31;16.20;;;13.73;;
75061;SDS011;63641;46.526;24.612;2023-03-01T08:21:02;19.10;;;13.20;;
75061;SDS011;63641;46.526;24.612;2023-03-01T08:23:40;15.32;;;12.73;;
75061;SDS011;63641;46.526;24.612;2023-03-01T08:26:12;18.77;;;13.10;;
75061;SDS011;63641;46.526;24.612;2023-03-01T08:28:44;16.73;;;13.13;;
75061;SDS011;63641;46.526;24.612;2023-03-01T08:31:21;16.40;;;12.50;;
75061;SDS011;63641;46.526;24.612;2023-03-01T08:33:51;16.65;;;12.93;;
75061;SDS011;63641;46.526;24.612;2023-03-01T08:36:23;16.17;;;13.40;;
75061;SDS011;63641;46.526;24.612;2023-03-01T08:38:53;20.13;;;13.73;;
75061;SDS011;63641;46.526;24.612;2023-03-01T08:41:20;20.50;;;14.85;;
75061;SDS011;63641;46.526;24.612;2023-03-01T08:43:47;21.00;;;16.42;;
75061;SDS011;63641;46.526;24.612;2023-03-01T08:46:13;26.52;;;18.88;;
75061;SDS011;63641;46.526;24.612;2023-03-01T08:48:41;23.38;;;19.63;;
75061;SDS011;63641;46.526;24.612;2023-03-01T08:51:13;19.50;;;15.43;;
75061;SDS011;63641;46.526;24.612;2023-03-01T08:53:45;19.85;;;16.23;;
75061;SDS011;63641;46.526;24.612;2023-03-01T08:56:12;18.23;;;15.88;;
75061;SDS011;63641;46.526;24.612;2023-03-01T08:58:39;17.17;;;14.60;;
75061;SDS011;63641;46.526;24.612;2023-03-01T09:01:06;20.83;;;14.60;;
75061;SDS011;63641;46.526;24.612;2023-03-01T09:03:34;18.52;;;13.95;;
75061;SDS011;63641;46.526;24.612;2023-03-01T09:06:02;15.45;;;12.23;;
75061;SDS011;63641;46.526;24.612;2023-03-01T09:08:31;15.98;;;11.98;;
75061;SDS011;63641;46.526;24.612;2023-03-01T09:11:03;14.55;;;12.25;;
75061;SDS011;63641;46.526;24.612;2023-03-01T09:13:31;12.48;;;10.85;;
75061;SDS011;63641;46.526;24.612;2023-03-01T09:15:59;14.15;;;11.13;;
75061;SDS011;63641;46.526;24.612;2023-03-01T09:18:27;13.50;;;10.82;;
75061;SDS011;63641;46.526;24.612;2023-03-01T09:21:01;14.95;;;9.90;;
75061;SDS011;63641;46.526;24.612;2023-03-01T09:23:36;10.63;;;8.77;;
75061;SDS011;63641;46.526;24.612;2023-03-01T09:26:11;11.88;;;8.40;;
75061;SDS011;63641;46.526;24.612;2023-03-01T09:28:40;13.90;;;9.43;;
75061;SDS011;63641;46.526;24.612;2023-03-01T09:31:07;17.20;;;13.25;;
75061;SDS011;63641;46.526;24.612;2023-03-01T09:33:34;16.42;;;13.35;;
75061;SDS011;63641;46.526;24.612;2023-03-01T09:36:05;17.92;;;13.88;;
75061;SDS011;63641;46.526;24.612;2023-03-01T09:38:33;18.63;;;15.38;;
75061;SDS011;63641;46.526;24.612;2023-03-01T09:41:01;16.90;;;11.95;;
75061;SDS011;63641;46.526;24.612;2023-03-01T09:46:14;17.85;;;14.00;;
75061;SDS011;63641;46.526;24.612;2023-03-01T09:49:04;18.27;;;15.02;;
75061;SDS011;63641;46.526;24.612;2023-03-01T09:51:38;16.48;;;14.75;;
75061;SDS011;63641;46.526;24.612;2023-03-01T09:54:05;16.23;;;13.95;;
75061;SDS011;63641;46.526;24.612;2023-03-01T10:10:26;16.42;;;12.18;;
75061;SDS011;63641;46.526;24.612;2023-03-01T10:13:00;12.27;;;10.60;;
75061;SDS011;63641;46.526;24.612;2023-03-01T10:15:41;14.43;;;10.75;;
75061;SDS011;63641;46.526;24.612;2023-03-01T10:18:18;14.15;;;11.25;;
75061;SDS011;63641;46.526;24.612;2023-03-01T10:23:18;9.88;;;8.32;;
75061;SDS011;63641;46.526;24.612;2023-03-01T10:28:44;17.83;;;12.00;;
75061;SDS011;63641;46.526;24.612;2023-03-01T10:31:13;15.48;;;11.00;;
75061;SDS011;63641;46.526;24.612;2023-03-01T10:33:44;11.93;;;10.13;;
75061;SDS011;63641;46.526;24.612;2023-03-01T10:36:11;15.32;;;10.38;;
75061;SDS011;63641;46.526;24.612;2023-03-01T10:38:48;9.75;;;8.70;;
75061;SDS011;63641;46.526;24.612;2023-03-01T10:41:24;9.52;;;8.43;;
75061;SDS011;63641;46.526;24.612;2023-03-01T10:43:54;9.32;;;7.82;;
75061;SDS011;63641;46.526;24.612;2023-03-01T10:46:24;10.63;;;7.53;;
75061;SDS011;63641;46.526;24.612;2023-03-01T10:51:42;9.15;;;7.35;;
75061;SDS011;63641;46.526;24.612;2023-03-01T10:54:32;9.15;;;6.78;;
75061;SDS011;63641;46.526;24.612;2023-03-01T10:56:59;14.07;;;9.52;;
75061;SDS011;63641;46.526;24.612;2023-03-01T10:59:32;11.38;;;8.65;;
75061;SDS011;63641;46.526;24.612;2023-03-01T11:04:56;13.70;;;9.60;;
75061;SDS011;63641;46.526;24.612;2023-03-01T11:07:23;11.25;;;9.88;;
75061;SDS011;63641;46.526;24.612;2023-03-01T11:09:50;13.57;;;10.13;;
75061;SDS011;63641;46.526;24.612;2023-03-01T11:12:16;10.98;;;8.65;;
75061;SDS011;63641;46.526;24.612;2023-03-01T11:14:50;11.38;;;9.20;;
75061;SDS011;63641;46.526;24.612;2023-03-01T11:17:23;10.30;;;9.20;;
75061;SDS011;63641;46.526;24.612;2023-03-01T11:22:47;9.60;;;6.78;;
75061;SDS011;63641;46.526;24.612;2023-03-01T11:25:19;6.97;;;5.90;;
75061;SDS011;63641;46.526;24.612;2023-03-01T11:27:53;7.38;;;5.97;;
75061;SDS011;63641;46.526;24.612;2023-03-01T11:30:31;7.70;;;5.88;;
75061;SDS011;63641;46.526;24.612;2023-03-01T11:33:07;6.68;;;5.78;;
75061;SDS011;63641;46.526;24.612;2023-03-01T11:35:48;8.93;;;7.10;;
75061;SDS011;63641;46.526;24.612;2023-03-01T11:38:25;9.60;;;6.03;;
75061;SDS011;63641;46.526;24.612;2023-03-01T11:41:17;6.97;;;6.10;;
75061;SDS011;63641;46.526;24.612;2023-03-01T11:46:40;7.07;;;6.28;;
75061;SDS011;63641;46.526;24.612;2023-03-01T11:57:51;8.48;;;6.18;;
75061;SDS011;63641;46.526;24.612;2023-03-01T12:00:55;8.50;;;6.30;;
75061;SDS011;63641;46.526;24.612;2023-03-01T12:17:30;7.85;;;6.60;;
75061;SDS011;63641;46.526;24.612;2023-03-01T12:43:47;8.57;;;7.32;;
75061;SDS011;63641;46.526;24.612;2023-03-01T12:46:41;10.43;;;7.40;;
75061;SDS011;63641;46.526;24.612;2023-03-01T12:49:15;8.52;;;7.32;;
75061;SDS011;63641;46.526;24.612;2023-03-01T12:52:00;8.70;;;6.75;;
75061;SDS011;63641;46.526;24.612;2023-03-01T12:54:36;8.82;;;7.18;;
75061;SDS011;63641;46.526;24.612;2023-03-01T12:57:09;8.45;;;7.28;;
75061;SDS011;63641;46.526;24.612;2023-03-01T13:00:06;8.93;;;8.02;;
75061;SDS011;63641;46.526;24.612;2023-03-01T13:10:50;12.50;;;7.63;;
75061;SDS011;63641;46.526;24.612;2023-03-01T13:13:24;9.05;;;7.43;;
75061;SDS011;63641;46.526;24.612;2023-03-01T13:15:52;10.65;;;8.38;;
75061;SDS011;63641;46.526;24.612;2023-03-01T13:28:41;8.60;;;7.28;;
75061;SDS011;63641;46.526;24.612;2023-03-01T13:36:13;7.72;;;6.88;;
75061;SDS011;63641;46.526;24.612;2023-03-01T13:39:00;8.05;;;6.90;;
75061;SDS011;63641;46.526;24.612;2023-03-01T13:44:26;7.85;;;6.28;;
75061;SDS011;63641;46.526;24.612;2023-03-01T13:49:33;9.55;;;6.68;;
75061;SDS011;63641;46.526;24.612;2023-03-01T13:57:49;10.27;;;7.18;;
75061;SDS011;63641;46.526;24.612;2023-03-01T14:00:33;8.27;;;6.82;;
75061;SDS011;63641;46.526;24.612;2023-03-01T14:08:46;7.65;;;6.55;;
75061;SDS011;63641;46.526;24.612;2023-03-01T14:14:08;9.80;;;7.88;;
75061;SDS011;63641;46.526;24.612;2023-03-01T14:16:45;7.78;;;6.75;;
75061;SDS011;63641;46.526;24.612;2023-03-01T14:19:24;8.13;;;6.95;;
75061;SDS011;63641;46.526;24.612;2023-03-01T14:22:12;8.63;;;7.55;;
75061;SDS011;63641;46.526;24.612;2023-03-01T14:24:40;11.75;;;9.27;;
75061;SDS011;63641;46.526;24.612;2023-03-01T14:27:38;10.88;;;7.10;;
75061;SDS011;63641;46.526;24.612;2023-03-01T14:30:14;8.50;;;7.10;;
75061;SDS011;63641;46.526;24.612;2023-03-01T14:32:57;7.60;;;6.80;;
75061;SDS011;63641;46.526;24.612;2023-03-01T14:35:29;9.77;;;7.57;;
75061;SDS011;63641;46.526;24.612;2023-03-01T14:37:57;8.52;;;7.60;;
75061;SDS011;63641;46.526;24.612;2023-03-01T14:40:25;9.82;;;7.97;;
75061;SDS011;63641;46.526;24.612;2023-03-01T14:42:59;10.53;;;7.50;;
75061;SDS011;63641;46.526;24.612;2023-03-01T14:45:28;10.45;;;7.50;;
75061;SDS011;63641;46.526;24.612;2023-03-01T14:48:00;9.52;;;6.57;;
75061;SDS011;63641;46.526;24.612;2023-03-01T14:50:31;6.45;;;5.75;;
75061;SDS011;63641;46.526;24.612;2023-03-01T14:53:04;8.48;;;6.00;;
75061;SDS011;63641;46.526;24.612;2023-03-01T14:55:35;6.97;;;6.22;;
75061;SDS011;63641;46.526;24.612;2023-03-01T14:58:04;7.47;;;6.35;;
75061;SDS011;63641;46.526;24.612;2023-03-01T15:00:35;6.65;;;5.78;;
75061;SDS011;63641;46.526;24.612;2023-03-01T15:03:06;6.57;;;5.95;;
75061;SDS011;63641;46.526;24.612;2023-03-01T15:05:40;8.02;;;6.10;;
75061;SDS011;63641;46.526;24.612;2023-03-01T15:08:13;8.35;;;6.05;;
75061;SDS011;63641;46.526;24.612;2023-03-01T15:11:17;7.88;;;6.72;;
75061;SDS011;63641;46.526;24.612;2023-03-01T15:13:52;8.27;;;5.60;;
75061;SDS011;63641;46.526;24.612;2023-03-01T15:16:20;8.43;;;5.88;;
75061;SDS011;63641;46.526;24.612;2023-03-01T15:18:49;7.47;;;6.10;;
75061;SDS011;63641;46.526;24.612;2023-03-01T15:21:20;6.82;;;6.13;;
75061;SDS011;63641;46.526;24.612;2023-03-01T15:23:57;8.18;;;6.18;;
75061;SDS011;63641;46.526;24.612;2023-03-01T15:26:33;6.97;;;6.28;;
75061;SDS011;63641;46.526;24.612;2023-03-01T15:29:04;7.35;;;6.43;;
75061;SDS011;63641;46.526;24.612;2023-03-01T15:31:35;7.78;;;5.75;;
75061;SDS011;63641;46.526;24.612;2023-03-01T15:34:21;6.97;;;6.05;;
75061;SDS011;63641;46.526;24.612;2023-03-01T15:36:49;8.40;;;7.47;;
75061;SDS011;63641;46.526;24.612;2023-03-01T15:42:38;8.20;;;6.68;;
75061;SDS011;63641;46.526;24.612;2023-03-01T15:47:48;6.45;;;5.25;;
75061;SDS011;63641;46.526;24.612;2023-03-01T15:50:24;6.72;;;5.57;;
75061;SDS011;63641;46.526;24.612;2023-03-01T15:52:58;7.57;;;6.10;;
75061;SDS011;63641;46.526;24.612;2023-03-01T15:55:30;9.10;;;6.13;;
75061;SDS011;63641;46.526;24.612;2023-03-01T15:58:00;7.50;;;5.53;;
75061;SDS011;63641;46.526;24.612;2023-03-01T16:00:32;7.07;;;5.93;;
75061;SDS011;63641;46.526;24.612;2023-03-01T16:02:59;6.43;;;5.55;;
75061;SDS011;63641;46.526;24.612;2023-03-01T16:05:33;6.80;;;5.95;;
75061;SDS011;63641;46.526;24.612;2023-03-01T16:08:02;8.95;;;6.10;;
75061;SDS011;63641;46.526;24.612;2023-03-01T16:10:30;8.85;;;6.90;;
75061;SDS011;63641;46.526;24.612;2023-03-01T16:12:57;9.90;;;7.15;;
75061;SDS011;63641;46.526;24.612;2023-03-01T16:15:28;7.18;;;5.70;;
75061;SDS011;63641;46.526;24.612;2023-03-01T16:17:59;6.30;;;5.28;;
75061;SDS011;63641;46.526;24.612;2023-03-01T16:20:26;7.80;;;5.80;;
75061;SDS011;63641;46.526;24.612;2023-03-01T16:22:59;5.95;;;5.28;;
75061;SDS011;63641;46.526;24.612;2023-03-01T16:25:28;7.47;;;6.10;;
75061;SDS011;63641;46.526;24.612;2023-03-01T16:27:55;8.75;;;5.70;;
75061;SDS011;63641;46.526;24.612;2023-03-01T16:30:24;8.02;;;6.00;;
75061;SDS011;63641;46.526;24.612;2023-03-01T16:32:51;6.28;;;5.38;;
75061;SDS011;63641;46.526;24.612;2023-03-01T16:35:19;7.10;;;5.47;;
75061;SDS011;63641;46.526;24.612;2023-03-01T16:37:47;7.72;;;5.80;;
75061;SDS011;63641;46.526;24.612;2023-03-01T16:40:19;6.10;;;5.25;;
75061;SDS011;63641;46.526;24.612;2023-03-01T16:42:48;10.70;;;5.78;;
75061;SDS011;63641;46.526;24.612;2023-03-01T16:45:16;7.00;;;5.25;;
75061;SDS011;63641;46.526;24.612;2023-03-01T16:47:50;8.27;;;5.47;;
75061;SDS011;63641;46.526;24.612;2023-03-01T16:50:20;6.15;;;5.40;;
75061;SDS011;63641;46.526;24.612;2023-03-01T16:52:47;7.80;;;5.28;;
75061;SDS011;63641;46.526;24.612;2023-03-01T16:55:14;8.82;;;6.10;;
75061;SDS011;63641;46.526;24.612;2023-03-01T16:57:41;7.15;;;6.03;;
75061;SDS011;63641;46.526;24.612;2023-03-01T17:00:08;7.47;;;6.22;;
75061;SDS011;63641;46.526;24.612;2023-03-01T17:02:37;7.60;;;6.20;;